This is the latest recevied weather packets stored in our database for station/object JE3XST-13. If no packets are shown the sender has not sent any weather packets the latest 1 day(s).
| Time | Temp. | Humidity | Pressure | Rain* | Wind** | Luminosity | Snow |
|---|---|---|---|---|---|---|---|
| 1836273883 | 27.78° C | 71% | 1009.7 hPa | 0 mm | 1.34 m/s, 93° | - | - |
| 1778033719 | 18.89° C | 60% | 1020.8 hPa | 0 mm | 0.89 m/s, 203° | - | - |
| 1778031920 | 18.89° C | 65% | 1020.9 hPa | 0 mm | 1.34 m/s, 160° | - | - |
| 1778030128 | 18.89° C | 67% | 1020.9 hPa | 0 mm | 0 m/s | - | - |
| 1778028319 | 18.33° C | 69% | 1021 hPa | 0 mm | 2.24 m/s, 110° | - | - |
| 1778026520 | 18.33° C | 69% | 1021.2 hPa | 0 mm | 1.34 m/s, 99° | - | - |
| 1778024719 | 17.78° C | 70% | 1021.1 hPa | 0 mm | 0 m/s | - | - |
| 1778022918 | 17.22° C | 73% | 1020.9 hPa | 0 mm | 0.89 m/s, 55° | - | - |
| 1778021118 | 16.11° C | 76% | 1021.1 hPa | 0 mm | 0 m/s | - | - |
| 1778019320 | 15° C | 81% | 1021.3 hPa | 0 mm | 0 m/s | - | - |
| 1778017520 | 13.89° C | 82% | 1021.6 hPa | 0 mm | 0 m/s | - | - |
| 1778015718 | 13.33° C | 85% | 1021.2 hPa | 0 mm | 0 m/s | - | - |
| 1778013919 | 12.22° C | 86% | 1021.3 hPa | 0 mm | 0 m/s | - | - |
| 1778012119 | 12.22° C | 85% | 1020.8 hPa | 0 mm | 0 m/s | - | - |
| 1778010318 | 12.22° C | 85% | 1021 hPa | 0 mm | 0 m/s | - | - |
| 1778008519 | 12.22° C | 84% | 1021.1 hPa | 0 mm | 0 m/s | - | - |
| 1778006719 | 12.78° C | 82% | 1021.1 hPa | 0 mm | 0 m/s | - | - |
| 1778004919 | 13.33° C | 79% | 1021.3 hPa | 0 mm | 0 m/s | - | - |
| 1778003119 | 14.44° C | 76% | 1021.6 hPa | 0 mm | 0 m/s | - | - |
| 1778001319 | 14.44° C | 75% | 1021.4 hPa | 0 mm | 0 m/s | - | - |
| 1777999519 | 14.44° C | 74% | 1021.4 hPa | 0 mm | 0 m/s | - | - |
| 1777997718 | 15° C | 73% | 1021.4 hPa | 0 mm | 0 m/s | - | - |
| 1777995918 | 15° C | 72% | 1021.6 hPa | 0 mm | 0 m/s | - | - |
| 1777994119 | 15° C | 72% | 1021.7 hPa | 0 mm | 0 m/s | - | - |
| 1777992319 | 15° C | 72% | 1021.6 hPa | 0 mm | 0 m/s | - | - |
* Rain latest hour (hover to see other rain measurements)
** Current wind speed in m/s (hover to see current wind gust speed)